Tunnerville, South Dakota
Current Conditions -  °F | °C
As of 12:13 AM on Tuesday 21 Oct 2014 (Local Time) from KCNB Reporting Station
Clear Clear  
Wind Chill: 39°   Ceiling: Unl
Heat Index: 39°   Visibility: 10mi
Dew Point: 35°   Wind: 0mph
Humidity: 88%   Direction: NA
Pressure: 30.07"   Gusts: NA
Location:  44.7895°N, 96.7201°W
Report Text: KCNB 210513Z AUTO 00000KT 10SM CLR 04/02 A3007 RMK AO2 T00370019
Loading
Personal Weather Stations






























Interactive Weather Map
Tropical Storm Tracking
New forecast layout! Learn more

10-Day Weather Forecast

Advertisements
Track Severe Weather on mobile